sensor_id;sensor_type;location;lat;lon;timestamp;temperature;humidity
72355;SHT30;60314;55.040;73.076;2022-09-06T00:01:48;11.79;76.24
72355;SHT30;60314;55.040;73.076;2022-09-06T00:04:15;11.79;76.20
72355;SHT30;60314;55.040;73.076;2022-09-06T00:06:42;11.82;76.58
72355;SHT30;60314;55.040;73.076;2022-09-06T00:09:08;11.79;78.06
72355;SHT30;60314;55.040;73.076;2022-09-06T00:11:35;11.79;78.10
72355;SHT30;60314;55.040;73.076;2022-09-06T00:14:02;11.81;77.36
72355;SHT30;60314;55.040;73.076;2022-09-06T00:16:28;11.79;76.86
72355;SHT30;60314;55.040;73.076;2022-09-06T00:18:55;11.82;76.64
72355;SHT30;60314;55.040;73.076;2022-09-06T00:21:27;11.76;76.90
72355;SHT30;60314;55.040;73.076;2022-09-06T00:23:54;11.68;76.09
72355;SHT30;60314;55.040;73.076;2022-09-06T00:26:21;11.67;76.74
72355;SHT30;60314;55.040;73.076;2022-09-06T00:28:48;11.68;76.23
72355;SHT30;60314;55.040;73.076;2022-09-06T00:31:21;11.68;76.84
72355;SHT30;60314;55.040;73.076;2022-09-06T00:33:48;11.62;76.66
72355;SHT30;60314;55.040;73.076;2022-09-06T00:36:20;11.64;77.11
72355;SHT30;60314;55.040;73.076;2022-09-06T00:38:47;11.64;76.93
72355;SHT30;60314;55.040;73.076;2022-09-06T00:41:15;11.57;78.07
72355;SHT30;60314;55.040;73.076;2022-09-06T00:43:42;11.57;77.50
72355;SHT30;60314;55.040;73.076;2022-09-06T00:46:13;11.54;77.89
72355;SHT30;60314;55.040;73.076;2022-09-06T00:48:41;11.55;77.18
72355;SHT30;60314;55.040;73.076;2022-09-06T00:51:10;11.52;77.63
72355;SHT30;60314;55.040;73.076;2022-09-06T00:53:38;11.52;77.23
72355;SHT30;60314;55.040;73.076;2022-09-06T00:56:10;11.51;78.19
72355;SHT30;60314;55.040;73.076;2022-09-06T00:58:42;11.47;77.96
72355;SHT30;60314;55.040;73.076;2022-09-06T01:01:08;11.52;78.25
72355;SHT30;60314;55.040;73.076;2022-09-06T01:03:36;11.59;76.87
72355;SHT30;60314;55.040;73.076;2022-09-06T01:11:46;11.35;78.68
72355;SHT30;60314;55.040;73.076;2022-09-06T01:14:52;11.41;78.76
72355;SHT30;60314;55.040;73.076;2022-09-06T01:20:26;11.23;79.55
72355;SHT30;60314;55.040;73.076;2022-09-06T01:36:35;11.18;79.50
72355;SHT30;60314;55.040;73.076;2022-09-06T01:39:26;11.21;79.86
72355;SHT30;60314;55.040;73.076;2022-09-06T01:41:55;11.18;80.31
72355;SHT30;60314;55.040;73.076;2022-09-06T01:44:25;11.16;80.87
72355;SHT30;60314;55.040;73.076;2022-09-06T01:59:06;11.03;82.12
72355;SHT30;60314;55.040;73.076;2022-09-06T02:01:37;10.92;82.29
72355;SHT30;60314;55.040;73.076;2022-09-06T02:04:24;10.89;82.77
72355;SHT30;60314;55.040;73.076;2022-09-06T02:07:07;10.81;82.54
72355;SHT30;60314;55.040;73.076;2022-09-06T02:09:38;10.80;82.78
72355;SHT30;60314;55.040;73.076;2022-09-06T02:12:19;10.79;83.07
72355;SHT30;60314;55.040;73.076;2022-09-06T02:18:13;10.77;83.06
72355;SHT30;60314;55.040;73.076;2022-09-06T02:20:53;10.84;82.78
72355;SHT30;60314;55.040;73.076;2022-09-06T02:23:37;10.86;82.98
72355;SHT30;60314;55.040;73.076;2022-09-06T02:26:08;10.83;82.73
72355;SHT30;60314;55.040;73.076;2022-09-06T02:28:36;10.86;82.35
72355;SHT30;60314;55.040;73.076;2022-09-06T02:31:11;10.83;82.91
72355;SHT30;60314;55.040;73.076;2022-09-06T02:33:40;10.76;83.82
72355;SHT30;60314;55.040;73.076;2022-09-06T02:36:07;10.80;82.61
72355;SHT30;60314;55.040;73.076;2022-09-06T02:38:45;10.77;83.40
72355;SHT30;60314;55.040;73.076;2022-09-06T02:41:22;10.75;83.59
72355;SHT30;60314;55.040;73.076;2022-09-06T02:43:49;10.83;82.98
72355;SHT30;60314;55.040;73.076;2022-09-06T02:46:16;10.92;82.31
72355;SHT30;60314;55.040;73.076;2022-09-06T02:48:42;11.00;81.32
72355;SHT30;60314;55.040;73.076;2022-09-06T02:51:09;11.03;82.63
72355;SHT30;60314;55.040;73.076;2022-09-06T02:53:36;11.04;82.74
72355;SHT30;60314;55.040;73.076;2022-09-06T02:56:02;11.06;82.01
72355;SHT30;60314;55.040;73.076;2022-09-06T02:58:29;11.17;80.48
72355;SHT30;60314;55.040;73.076;2022-09-06T03:00:56;11.24;82.42
72355;SHT30;60314;55.040;73.076;2022-09-06T03:03:28;11.17;82.87
72355;SHT30;60314;55.040;73.076;2022-09-06T03:05:55;11.17;82.40
72355;SHT30;60314;55.040;73.076;2022-09-06T03:08:33;11.28;82.09
72355;SHT30;60314;55.040;73.076;2022-09-06T03:11:11;11.26;82.40
72355;SHT30;60314;55.040;73.076;2022-09-06T03:13:38;11.23;82.82
72355;SHT30;60314;55.040;73.076;2022-09-06T03:16:06;11.28;81.82
72355;SHT30;60314;55.040;73.076;2022-09-06T03:18:33;11.32;82.84
72355;SHT30;60314;55.040;73.076;2022-09-06T03:21:00;11.21;83.90
72355;SHT30;60314;55.040;73.076;2022-09-06T03:23:37;11.14;83.58
72355;SHT30;60314;55.040;73.076;2022-09-06T03:26:12;11.04;84.17
72355;SHT30;60314;55.040;73.076;2022-09-06T03:28:38;10.97;83.95
72355;SHT30;60314;55.040;73.076;2022-09-06T03:31:05;11.04;84.64
72355;SHT30;60314;55.040;73.076;2022-09-06T03:33:31;11.06;84.21
72355;SHT30;60314;55.040;73.076;2022-09-06T03:36:00;11.20;82.53
72355;SHT30;60314;55.040;73.076;2022-09-06T03:38:28;11.23;83.93
72355;SHT30;60314;55.040;73.076;2022-09-06T03:40:55;11.20;83.15
72355;SHT30;60314;55.040;73.076;2022-09-06T03:43:23;11.13;83.71
72355;SHT30;60314;55.040;73.076;2022-09-06T03:45:52;11.10;83.86
72355;SHT30;60314;55.040;73.076;2022-09-06T03:48:29;11.13;84.04
72355;SHT30;60314;55.040;73.076;2022-09-06T03:50:57;11.11;83.97
72355;SHT30;60314;55.040;73.076;2022-09-06T03:53:26;11.08;84.43
72355;SHT30;60314;55.040;73.076;2022-09-06T03:55:54;11.13;84.24
72355;SHT30;60314;55.040;73.076;2022-09-06T03:58:32;11.17;83.99
72355;SHT30;60314;55.040;73.076;2022-09-06T04:01:09;11.30;83.81
72355;SHT30;60314;55.040;73.076;2022-09-06T04:03:37;11.44;81.96
72355;SHT30;60314;55.040;73.076;2022-09-06T04:06:05;11.50;81.79
72355;SHT30;60314;55.040;73.076;2022-09-06T04:08:41;11.55;82.36
72355;SHT30;60314;55.040;73.076;2022-09-06T04:11:08;11.64;81.64
72355;SHT30;60314;55.040;73.076;2022-09-06T04:13:35;11.72;81.97
72355;SHT30;60314;55.040;73.076;2022-09-06T04:16:12;11.69;82.26
72355;SHT30;60314;55.040;73.076;2022-09-06T04:18:39;11.69;82.49
72355;SHT30;60314;55.040;73.076;2022-09-06T04:21:05;11.78;82.09
72355;SHT30;60314;55.040;73.076;2022-09-06T04:23:32;11.83;81.42
72355;SHT30;60314;55.040;73.076;2022-09-06T04:25:58;11.90;81.12
72355;SHT30;60314;55.040;73.076;2022-09-06T04:28:25;11.96;80.05
72355;SHT30;60314;55.040;73.076;2022-09-06T04:30:55;12.02;81.22
72355;SHT30;60314;55.040;73.076;2022-09-06T04:33:33;12.03;79.74
72355;SHT30;60314;55.040;73.076;2022-09-06T04:36:01;12.12;79.75
72355;SHT30;60314;55.040;73.076;2022-09-06T04:38:40;12.17;80.85
72355;SHT30;60314;55.040;73.076;2022-09-06T04:41:12;12.20;81.01
72355;SHT30;60314;55.040;73.076;2022-09-06T04:43:41;12.20;80.57
72355;SHT30;60314;55.040;73.076;2022-09-06T04:46:14;12.23;81.74
72355;SHT30;60314;55.040;73.076;2022-09-06T04:48:42;12.27;81.46
72355;SHT30;60314;55.040;73.076;2022-09-06T04:51:09;12.36;78.62
72355;SHT30;60314;55.040;73.076;2022-09-06T04:53:35;12.41;78.19
72355;SHT30;60314;55.040;73.076;2022-09-06T04:56:02;12.46;78.37
72355;SHT30;60314;55.040;73.076;2022-09-06T04:58:29;12.50;77.98
72355;SHT30;60314;55.040;73.076;2022-09-06T05:00:56;12.53;78.41
72355;SHT30;60314;55.040;73.076;2022-09-06T05:03:23;12.56;78.12
72355;SHT30;60314;55.040;73.076;2022-09-06T05:05:50;12.51;78.33
72355;SHT30;60314;55.040;73.076;2022-09-06T05:08:16;12.53;78.31
72355;SHT30;60314;55.040;73.076;2022-09-06T05:10:43;12.56;77.36
72355;SHT30;60314;55.040;73.076;2022-09-06T05:13:11;12.60;77.49
72355;SHT30;60314;55.040;73.076;2022-09-06T05:15:38;12.60;78.23
72355;SHT30;60314;55.040;73.076;2022-09-06T05:18:04;12.67;78.04
72355;SHT30;60314;55.040;73.076;2022-09-06T05:20:38;12.73;78.02
72355;SHT30;60314;55.040;73.076;2022-09-06T05:23:05;12.78;77.32
72355;SHT30;60314;55.040;73.076;2022-09-06T05:25:31;12.87;76.89
72355;SHT30;60314;55.040;73.076;2022-09-06T05:28:03;12.92;76.10
72355;SHT30;60314;55.040;73.076;2022-09-06T05:30:40;12.92;76.95
72355;SHT30;60314;55.040;73.076;2022-09-06T05:33:08;12.98;77.11
72355;SHT30;60314;55.040;73.076;2022-09-06T05:35:35;12.99;76.45
72355;SHT30;60314;55.040;73.076;2022-09-06T05:38:02;13.08;76.98
72355;SHT30;60314;55.040;73.076;2022-09-06T05:40:28;13.15;77.30
72355;SHT30;60314;55.040;73.076;2022-09-06T05:43:05;13.21;76.69
72355;SHT30;60314;55.040;73.076;2022-09-06T05:45:37;13.21;75.51
72355;SHT30;60314;55.040;73.076;2022-09-06T05:48:04;13.26;76.68
72355;SHT30;60314;55.040;73.076;2022-09-06T05:50:41;13.29;78.72
72355;SHT30;60314;55.040;73.076;2022-09-06T05:53:07;13.28;77.77
72355;SHT30;60314;55.040;73.076;2022-09-06T05:55:34;13.21;79.20
72355;SHT30;60314;55.040;73.076;2022-09-06T05:58:00;13.18;78.78
72355;SHT30;60314;55.040;73.076;2022-09-06T06:00:26;13.09;79.85
72355;SHT30;60314;55.040;73.076;2022-09-06T06:02:53;13.12;78.70
72355;SHT30;60314;55.040;73.076;2022-09-06T06:05:28;13.22;77.94
72355;SHT30;60314;55.040;73.076;2022-09-06T06:07:55;13.32;77.36
72355;SHT30;60314;55.040;73.076;2022-09-06T06:10:23;13.39;77.91
72355;SHT30;60314;55.040;73.076;2022-09-06T06:12:49;13.48;77.81
72355;SHT30;60314;55.040;73.076;2022-09-06T06:15:16;13.50;77.40
72355;SHT30;60314;55.040;73.076;2022-09-06T06:17:49;13.62;76.98
72355;SHT30;60314;55.040;73.076;2022-09-06T06:20:20;13.69;77.21
72355;SHT30;60314;55.040;73.076;2022-09-06T06:22:57;13.66;76.64
72355;SHT30;60314;55.040;73.076;2022-09-06T06:25:42;13.62;76.54
72355;SHT30;60314;55.040;73.076;2022-09-06T06:28:08;13.71;77.12
72355;SHT30;60314;55.040;73.076;2022-09-06T06:30:40;13.74;77.47
72355;SHT30;60314;55.040;73.076;2022-09-06T06:33:12;13.76;77.27
72355;SHT30;60314;55.040;73.076;2022-09-06T06:35:39;13.76;76.29
72355;SHT30;60314;55.040;73.076;2022-09-06T06:38:05;13.83;76.60
72355;SHT30;60314;55.040;73.076;2022-09-06T06:40:31;13.91;77.31
72355;SHT30;60314;55.040;73.076;2022-09-06T06:42:58;13.99;75.86
72355;SHT30;60314;55.040;73.076;2022-09-06T06:45:25;14.04;77.64
72355;SHT30;60314;55.040;73.076;2022-09-06T06:47:51;14.10;75.59
72355;SHT30;60314;55.040;73.076;2022-09-06T06:50:18;14.18;76.56
72355;SHT30;60314;55.040;73.076;2022-09-06T06:52:45;14.20;76.97
72355;SHT30;60314;55.040;73.076;2022-09-06T06:55:12;14.17;76.69
72355;SHT30;60314;55.040;73.076;2022-09-06T06:57:38;14.16;77.15
72355;SHT30;60314;55.040;73.076;2022-09-06T07:00:05;14.21;77.54
72355;SHT30;60314;55.040;73.076;2022-09-06T07:02:32;14.14;77.83
72355;SHT30;60314;55.040;73.076;2022-09-06T07:04:58;14.18;78.63
72355;SHT30;60314;55.040;73.076;2022-09-06T07:07:25;14.21;77.28
72355;SHT30;60314;55.040;73.076;2022-09-06T07:09:51;14.20;76.97
72355;SHT30;60314;55.040;73.076;2022-09-06T07:12:17;14.22;77.36
72355;SHT30;60314;55.040;73.076;2022-09-06T07:14:44;14.13;77.48
72355;SHT30;60314;55.040;73.076;2022-09-06T07:17:11;14.14;77.15
72355;SHT30;60314;55.040;73.076;2022-09-06T07:19:37;14.11;78.36
72355;SHT30;60314;55.040;73.076;2022-09-06T07:22:04;14.14;77.85
72355;SHT30;60314;55.040;73.076;2022-09-06T07:24:31;14.06;77.54
72355;SHT30;60314;55.040;73.076;2022-09-06T07:26:58;14.09;78.00
72355;SHT30;60314;55.040;73.076;2022-09-06T07:29:25;14.07;77.69
72355;SHT30;60314;55.040;73.076;2022-09-06T07:31:51;14.16;78.29
72355;SHT30;60314;55.040;73.076;2022-09-06T07:34:28;14.17;77.16
72355;SHT30;60314;55.040;73.076;2022-09-06T07:36:55;14.17;77.08
72355;SHT30;60314;55.040;73.076;2022-09-06T07:39:21;14.20;77.86
72355;SHT30;60314;55.040;73.076;2022-09-06T07:41:48;14.20;79.18
72355;SHT30;60314;55.040;73.076;2022-09-06T07:44:14;14.20;78.85
72355;SHT30;60314;55.040;73.076;2022-09-06T07:46:41;14.18;79.31
72355;SHT30;60314;55.040;73.076;2022-09-06T07:49:08;14.11;79.07
72355;SHT30;60314;55.040;73.076;2022-09-06T07:51:34;14.11;79.69
72355;SHT30;60314;55.040;73.076;2022-09-06T07:54:01;14.00;79.91
72355;SHT30;60314;55.040;73.076;2022-09-06T07:56:33;13.96;81.33
72355;SHT30;60314;55.040;73.076;2022-09-06T07:59:03;13.94;80.41
72355;SHT30;60314;55.040;73.076;2022-09-06T08:01:38;13.81;81.13
72355;SHT30;60314;55.040;73.076;2022-09-06T08:04:10;13.71;80.97
72355;SHT30;60314;55.040;73.076;2022-09-06T08:06:39;13.67;81.46
72355;SHT30;60314;55.040;73.076;2022-09-06T08:09:06;13.73;81.67
72355;SHT30;60314;55.040;73.076;2022-09-06T08:11:35;13.77;81.82
72355;SHT30;60314;55.040;73.076;2022-09-06T08:14:03;13.81;81.88
72355;SHT30;60314;55.040;73.076;2022-09-06T08:16:36;13.86;81.12
72355;SHT30;60314;55.040;73.076;2022-09-06T08:19:08;13.89;80.94
72355;SHT30;60314;55.040;73.076;2022-09-06T08:21:46;14.03;81.63
72355;SHT30;60314;55.040;73.076;2022-09-06T08:24:12;14.06;81.13
72355;SHT30;60314;55.040;73.076;2022-09-06T08:26:39;14.13;80.96
72355;SHT30;60314;55.040;73.076;2022-09-06T08:29:12;14.24;81.40
72355;SHT30;60314;55.040;73.076;2022-09-06T08:31:40;14.30;80.36
72355;SHT30;60314;55.040;73.076;2022-09-06T08:34:07;14.35;80.52
72355;SHT30;60314;55.040;73.076;2022-09-06T08:36:40;14.41;79.86
72355;SHT30;60314;55.040;73.076;2022-09-06T08:39:08;14.44;79.98
72355;SHT30;60314;55.040;73.076;2022-09-06T08:41:48;14.46;78.29
72355;SHT30;60314;55.040;73.076;2022-09-06T08:44:42;14.54;80.02
72355;SHT30;60314;55.040;73.076;2022-09-06T08:47:12;14.49;81.08
72355;SHT30;60314;55.040;73.076;2022-09-06T08:50:04;14.58;79.91
72355;SHT30;60314;55.040;73.076;2022-09-06T08:55:35;14.58;79.95
72355;SHT30;60314;55.040;73.076;2022-09-06T09:00:35;14.58;80.42
72355;SHT30;60314;55.040;73.076;2022-09-06T09:03:10;14.54;79.67
72355;SHT30;60314;55.040;73.076;2022-09-06T09:05:38;14.52;79.62
72355;SHT30;60314;55.040;73.076;2022-09-06T09:08:28;14.51;79.45
72355;SHT30;60314;55.040;73.076;2022-09-06T09:11:02;14.54;80.38
72355;SHT30;60314;55.040;73.076;2022-09-06T09:16:15;14.48;80.38
72355;SHT30;60314;55.040;73.076;2022-09-06T09:18:45;14.58;80.87
72355;SHT30;60314;55.040;73.076;2022-09-06T09:21:18;14.51;80.89
72355;SHT30;60314;55.040;73.076;2022-09-06T09:23:55;14.46;81.47
72355;SHT30;60314;55.040;73.076;2022-09-06T09:26:26;14.51;79.95
72355;SHT30;60314;55.040;73.076;2022-09-06T09:29:10;14.57;81.04
72355;SHT30;60314;55.040;73.076;2022-09-06T09:31:46;14.57;81.90
72355;SHT30;60314;55.040;73.076;2022-09-06T09:34:30;14.44;81.81
72355;SHT30;60314;55.040;73.076;2022-09-06T09:37:19;14.48;81.12
72355;SHT30;60314;55.040;73.076;2022-09-06T09:39:47;14.57;81.81
72355;SHT30;60314;55.040;73.076;2022-09-06T09:42:28;14.55;81.63
72355;SHT30;60314;55.040;73.076;2022-09-06T09:47:48;14.42;81.64
72355;SHT30;60314;55.040;73.076;2022-09-06T09:50:25;14.55;82.17
72355;SHT30;60314;55.040;73.076;2022-09-06T09:52:53;14.57;81.79
72355;SHT30;60314;55.040;73.076;2022-09-06T09:55:24;14.65;81.98
72355;SHT30;60314;55.040;73.076;2022-09-06T09:58:01;14.67;81.83
72355;SHT30;60314;55.040;73.076;2022-09-06T10:00:35;14.62;81.92
72355;SHT30;60314;55.040;73.076;2022-09-06T10:03:12;14.69;82.08
72355;SHT30;60314;55.040;73.076;2022-09-06T10:05:40;14.72;81.98
72355;SHT30;60314;55.040;73.076;2022-09-06T10:08:10;14.73;81.00
72355;SHT30;60314;55.040;73.076;2022-09-06T10:10:45;14.78;81.39
72355;SHT30;60314;55.040;73.076;2022-09-06T10:13:24;14.76;80.96
72355;SHT30;60314;55.040;73.076;2022-09-06T10:15:59;14.78;81.73
72355;SHT30;60314;55.040;73.076;2022-09-06T10:18:40;14.67;82.25
72355;SHT30;60314;55.040;73.076;2022-09-06T10:21:14;14.62;82.65
72355;SHT30;60314;55.040;73.076;2022-09-06T10:26:54;14.73;82.90
72355;SHT30;60314;55.040;73.076;2022-09-06T10:35:22;14.89;81.43
72355;SHT30;60314;55.040;73.076;2022-09-06T10:46:25;14.98;79.18
72355;SHT30;60314;55.040;73.076;2022-09-06T10:49:03;14.99;81.17
72355;SHT30;60314;55.040;73.076;2022-09-06T10:51:43;14.95;81.08
72355;SHT30;60314;55.040;73.076;2022-09-06T10:54:12;14.93;81.18
72355;SHT30;60314;55.040;73.076;2022-09-06T10:56:50;14.95;81.81
72355;SHT30;60314;55.040;73.076;2022-09-06T11:05:03;14.85;82.25
72355;SHT30;60314;55.040;73.076;2022-09-06T11:07:34;14.79;82.27
72355;SHT30;60314;55.040;73.076;2022-09-06T11:10:11;14.75;82.44
72355;SHT30;60314;55.040;73.076;2022-09-06T11:12:53;14.69;82.57
72355;SHT30;60314;55.040;73.076;2022-09-06T11:15:24;14.73;83.47
72355;SHT30;60314;55.040;73.076;2022-09-06T11:17:59;14.71;83.17
72355;SHT30;60314;55.040;73.076;2022-09-06T11:26:32;14.65;82.98
72355;SHT30;60314;55.040;73.076;2022-09-06T11:29:05;14.62;83.01
72355;SHT30;60314;55.040;73.076;2022-09-06T11:31:52;14.61;83.00
72355;SHT30;60314;55.040;73.076;2022-09-06T11:34:34;14.60;82.89
72355;SHT30;60314;55.040;73.076;2022-09-06T11:37:06;14.61;83.07
72355;SHT30;60314;55.040;73.076;2022-09-06T11:39:37;14.54;83.17
72355;SHT30;60314;55.040;73.076;2022-09-06T11:42:38;14.57;83.59
72355;SHT30;60314;55.040;73.076;2022-09-06T11:45:55;14.51;83.58
72355;SHT30;60314;55.040;73.076;2022-09-06T11:51:08;14.44;83.56
72355;SHT30;60314;55.040;73.076;2022-09-06T11:56:41;14.44;83.48
72355;SHT30;60314;55.040;73.076;2022-09-06T12:02:05;14.58;82.83
72355;SHT30;60314;55.040;73.076;2022-09-06T12:07:24;14.60;82.16
72355;SHT30;60314;55.040;73.076;2022-09-06T12:09:51;14.55;83.06
72355;SHT30;60314;55.040;73.076;2022-09-06T12:12:44;14.51;82.67
72355;SHT30;60314;55.040;73.076;2022-09-06T12:15:29;14.51;83.38
72355;SHT30;60314;55.040;73.076;2022-09-06T12:17:58;14.49;83.50
72355;SHT30;60314;55.040;73.076;2022-09-06T12:26:06;14.57;83.47
72355;SHT30;60314;55.040;73.076;2022-09-06T12:28:50;14.54;83.59
72355;SHT30;60314;55.040;73.076;2022-09-06T12:33:50;14.45;84.07
72355;SHT30;60314;55.040;73.076;2022-09-06T12:36:20;14.38;83.97
72355;SHT30;60314;55.040;73.076;2022-09-06T12:39:06;14.40;83.65
72355;SHT30;60314;55.040;73.076;2022-09-06T12:41:47;14.42;83.83
72355;SHT30;60314;55.040;73.076;2022-09-06T12:44:15;14.41;83.84
72355;SHT30;60314;55.040;73.076;2022-09-06T12:46:48;14.40;83.71
72355;SHT30;60314;55.040;73.076;2022-09-06T12:49:19;14.38;82.89
72355;SHT30;60314;55.040;73.076;2022-09-06T12:52:10;14.41;82.95
72355;SHT30;60314;55.040;73.076;2022-09-06T12:54:47;14.44;83.17
72355;SHT30;60314;55.040;73.076;2022-09-06T12:57:22;14.44;83.63
72355;SHT30;60314;55.040;73.076;2022-09-06T12:59:59;14.46;83.55
72355;SHT30;60314;55.040;73.076;2022-09-06T13:02:51;14.54;81.86
72355;SHT30;60314;55.040;73.076;2022-09-06T13:05:23;14.48;83.23
72355;SHT30;60314;55.040;73.076;2022-09-06T13:07:57;14.44;82.64
72355;SHT30;60314;55.040;73.076;2022-09-06T13:10:34;14.45;82.20
72355;SHT30;60314;55.040;73.076;2022-09-06T13:13:10;14.45;82.80
72355;SHT30;60314;55.040;73.076;2022-09-06T13:15:44;14.45;83.25
72355;SHT30;60314;55.040;73.076;2022-09-06T13:18:23;14.42;82.65
72355;SHT30;60314;55.040;73.076;2022-09-06T13:21:08;14.38;83.58
72355;SHT30;60314;55.040;73.076;2022-09-06T13:23:48;14.38;82.14
72355;SHT30;60314;55.040;73.076;2022-09-06T13:26:32;14.46;82.37
72355;SHT30;60314;55.040;73.076;2022-09-06T13:32:00;14.49;81.52
72355;SHT30;60314;55.040;73.076;2022-09-06T13:34:31;14.51;82.20
72355;SHT30;60314;55.040;73.076;2022-09-06T13:37:09;14.51;82.52
72355;SHT30;60314;55.040;73.076;2022-09-06T13:39:39;14.52;82.35
72355;SHT30;60314;55.040;73.076;2022-09-06T13:44:54;14.51;82.29
72355;SHT30;60314;55.040;73.076;2022-09-06T13:47:25;14.49;83.04
72355;SHT30;60314;55.040;73.076;2022-09-06T13:49:52;14.54;83.02
72355;SHT30;60314;55.040;73.076;2022-09-06T13:52:24;14.52;82.25
72355;SHT30;60314;55.040;73.076;2022-09-06T13:55:00;14.58;82.12
72355;SHT30;60314;55.040;73.076;2022-09-06T13:57:27;14.60;82.09
72355;SHT30;60314;55.040;73.076;2022-09-06T13:59:53;14.58;82.15
72355;SHT30;60314;55.040;73.076;2022-09-06T14:02:24;14.52;82.73
72355;SHT30;60314;55.040;73.076;2022-09-06T14:04:51;14.51;80.98
72355;SHT30;60314;55.040;73.076;2022-09-06T14:07:23;14.52;81.65
72355;SHT30;60314;55.040;73.076;2022-09-06T14:09:50;14.55;82.24
72355;SHT30;60314;55.040;73.076;2022-09-06T14:12:17;14.58;81.65
72355;SHT30;60314;55.040;73.076;2022-09-06T14:14:43;14.57;82.47
72355;SHT30;60314;55.040;73.076;2022-09-06T14:17:15;14.60;82.91
72355;SHT30;60314;55.040;73.076;2022-09-06T14:19:41;14.51;82.74
72355;SHT30;60314;55.040;73.076;2022-09-06T14:22:08;14.51;82.22
72355;SHT30;60314;55.040;73.076;2022-09-06T14:24:34;14.52;81.80
72355;SHT30;60314;55.040;73.076;2022-09-06T14:27:01;14.49;82.57
72355;SHT30;60314;55.040;73.076;2022-09-06T14:29:27;14.51;80.99
72355;SHT30;60314;55.040;73.076;2022-09-06T14:32:04;14.54;81.90
72355;SHT30;60314;55.040;73.076;2022-09-06T14:34:30;14.57;82.39
72355;SHT30;60314;55.040;73.076;2022-09-06T14:36:58;14.54;81.93
72355;SHT30;60314;55.040;73.076;2022-09-06T14:39:25;14.58;81.42
72355;SHT30;60314;55.040;73.076;2022-09-06T14:41:52;14.58;81.47
72355;SHT30;60314;55.040;73.076;2022-09-06T14:44:19;14.58;80.94
72355;SHT30;60314;55.040;73.076;2022-09-06T14:46:45;14.55;82.24
72355;SHT30;60314;55.040;73.076;2022-09-06T14:49:13;14.52;82.39
72355;SHT30;60314;55.040;73.076;2022-09-06T14:51:40;14.48;82.22
72355;SHT30;60314;55.040;73.076;2022-09-06T14:54:10;14.48;82.78
72355;SHT30;60314;55.040;73.076;2022-09-06T14:56:39;14.42;82.20
72355;SHT30;60314;55.040;73.076;2022-09-06T14:59:06;14.40;81.88
72355;SHT30;60314;55.040;73.076;2022-09-06T15:01:34;14.42;83.27
72355;SHT30;60314;55.040;73.076;2022-09-06T15:04:04;14.41;82.10
72355;SHT30;60314;55.040;73.076;2022-09-06T15:06:32;14.46;82.71
72355;SHT30;60314;55.040;73.076;2022-09-06T15:08:59;14.48;81.50
72355;SHT30;60314;55.040;73.076;2022-09-06T15:11:27;14.52;81.13
72355;SHT30;60314;55.040;73.076;2022-09-06T15:13:57;14.55;81.18
72355;SHT30;60314;55.040;73.076;2022-09-06T15:16:24;14.51;82.00
72355;SHT30;60314;55.040;73.076;2022-09-06T15:18:50;14.40;82.60
72355;SHT30;60314;55.040;73.076;2022-09-06T15:21:17;14.35;83.08
72355;SHT30;60314;55.040;73.076;2022-09-06T15:23:44;14.32;82.71
72355;SHT30;60314;55.040;73.076;2022-09-06T15:26:14;14.37;82.34
72355;SHT30;60314;55.040;73.076;2022-09-06T15:28:45;14.40;82.53
72355;SHT30;60314;55.040;73.076;2022-09-06T15:31:21;14.38;82.19
72355;SHT30;60314;55.040;73.076;2022-09-06T15:33:50;14.38;81.99
72355;SHT30;60314;55.040;73.076;2022-09-06T15:36:17;14.41;80.64
72355;SHT30;60314;55.040;73.076;2022-09-06T15:38:48;14.48;81.01
72355;SHT30;60314;55.040;73.076;2022-09-06T15:41:29;14.46;80.56
72355;SHT30;60314;55.040;73.076;2022-09-06T15:44:00;14.46;80.29
72355;SHT30;60314;55.040;73.076;2022-09-06T15:49:06;14.42;82.85
72355;SHT30;60314;55.040;73.076;2022-09-06T15:51:35;14.37;82.50
72355;SHT30;60314;55.040;73.076;2022-09-06T15:54:13;14.31;81.63
72355;SHT30;60314;55.040;73.076;2022-09-06T15:56:40;14.30;82.94
72355;SHT30;60314;55.040;73.076;2022-09-06T15:59:07;14.22;82.75
72355;SHT30;60314;55.040;73.076;2022-09-06T16:01:43;14.18;82.92
72355;SHT30;60314;55.040;73.076;2022-09-06T16:04:10;14.13;82.44
72355;SHT30;60314;55.040;73.076;2022-09-06T16:06:38;14.11;82.05
72355;SHT30;60314;55.040;73.076;2022-09-06T16:09:13;14.11;81.55
72355;SHT30;60314;55.040;73.076;2022-09-06T16:11:40;14.09;82.01
72355;SHT30;60314;55.040;73.076;2022-09-06T16:14:09;14.10;81.97
72355;SHT30;60314;55.040;73.076;2022-09-06T16:16:36;14.06;83.56
72355;SHT30;60314;55.040;73.076;2022-09-06T16:19:03;14.03;82.78
72355;SHT30;60314;55.040;73.076;2022-09-06T16:21:31;14.04;83.50
72355;SHT30;60314;55.040;73.076;2022-09-06T16:24:03;14.00;83.40
72355;SHT30;60314;55.040;73.076;2022-09-06T16:26:31;13.94;84.24
72355;SHT30;60314;55.040;73.076;2022-09-06T16:29:00;13.93;83.77
72355;SHT30;60314;55.040;73.076;2022-09-06T16:31:33;13.86;84.71
72355;SHT30;60314;55.040;73.076;2022-09-06T16:34:00;13.83;84.54
72355;SHT30;60314;55.040;73.076;2022-09-06T16:36:30;13.91;82.74
72355;SHT30;60314;55.040;73.076;2022-09-06T16:39:00;13.91;82.71
72355;SHT30;60314;55.040;73.076;2022-09-06T16:41:33;13.94;83.97
72355;SHT30;60314;55.040;73.076;2022-09-06T16:44:03;13.91;82.56
72355;SHT30;60314;55.040;73.076;2022-09-06T16:46:30;13.90;83.03
72355;SHT30;60314;55.040;73.076;2022-09-06T16:48:58;13.93;84.15
72355;SHT30;60314;55.040;73.076;2022-09-06T16:51:36;13.90;83.33
72355;SHT30;60314;55.040;73.076;2022-09-06T16:54:07;13.94;84.08
72355;SHT30;60314;55.040;73.076;2022-09-06T16:56:38;13.94;83.74
72355;SHT30;60314;55.040;73.076;2022-09-06T16:59:11;13.86;85.50
72355;SHT30;60314;55.040;73.076;2022-09-06T17:01:40;13.83;85.78
72355;SHT30;60314;55.040;73.076;2022-09-06T17:04:17;13.77;85.87
72355;SHT30;60314;55.040;73.076;2022-09-06T17:06:44;13.77;85.01
72355;SHT30;60314;55.040;73.076;2022-09-06T17:09:13;13.77;85.68
72355;SHT30;60314;55.040;73.076;2022-09-06T17:11:50;13.73;84.57
72355;SHT30;60314;55.040;73.076;2022-09-06T17:14:18;13.77;84.09
72355;SHT30;60314;55.040;73.076;2022-09-06T17:16:45;13.79;83.72
72355;SHT30;60314;55.040;73.076;2022-09-06T17:19:33;13.76;85.07
72355;SHT30;60314;55.040;73.076;2022-09-06T17:21:59;13.73;84.75
72355;SHT30;60314;55.040;73.076;2022-09-06T17:24:29;13.70;86.12
72355;SHT30;60314;55.040;73.076;2022-09-06T17:26:55;13.73;85.54